Time;durP1;ratioP1;P1;durP2;ratioP2;P2;SDS_P1;SDS_P2;PMS_P1;PMS_P2;Temp;Humidity;BMP_temperature;BMP_pressure;BME280_temperature;BME280_humidity;BME280_pressure;Samples;Min_cycle;Max_cycle;Signal;HPM_P1;HPM_P2
2023/05/13 00:00:51;;;;;;;17.35;4.55;;;14.10;99.90;;;;;;5112638;28;20024;-70
2023/05/13 00:03:17;;;;;;;12.18;4.20;;;14.10;99.90;;;;;;5112443;28;20564;-69
2023/05/13 00:05:44;;;;;;;12.15;3.95;;;14.10;99.90;;;;;;5112366;28;20032;-70
2023/05/13 00:08:10;;;;;;;15.00;4.22;;;14.10;99.90;;;;;;5112348;28;20053;-69
2023/05/13 00:10:36;;;;;;;10.95;3.55;;;14.10;99.90;;;;;;5111993;28;20031;-69
2023/05/13 00:13:02;;;;;;;12.75;4.07;;;14.00;99.90;;;;;;5112569;28;20118;-69
2023/05/13 00:15:28;;;;;;;10.45;3.70;;;14.10;99.90;;;;;;5112298;28;20492;-69
2023/05/13 00:17:54;;;;;;;10.90;3.15;;;14.10;99.90;;;;;;5112234;28;20018;-69
2023/05/13 00:20:19;;;;;;;14.63;3.85;;;14.10;99.90;;;;;;5111961;28;20028;-70
2023/05/13 00:22:45;;;;;;;13.60;3.83;;;14.10;99.90;;;;;;5112446;28;20092;-69
2023/05/13 00:25:11;;;;;;;12.32;3.50;;;14.20;99.90;;;;;;5111526;28;21052;-69
2023/05/13 00:27:37;;;;;;;16.02;4.00;;;14.20;99.90;;;;;;5112097;28;20035;-70
2023/05/13 00:30:04;;;;;;;12.70;3.38;;;14.30;99.90;;;;;;5112213;28;20413;-69
2023/05/13 00:32:30;;;;;;;14.48;3.85;;;14.30;99.90;;;;;;5112470;28;20023;-69
2023/05/13 00:34:56;;;;;;;14.43;3.40;;;14.40;99.90;;;;;;5111703;28;20027;-69
2023/05/13 00:37:22;;;;;;;10.73;3.30;;;14.40;99.90;;;;;;5111615;28;20084;-69
2023/05/13 00:39:48;;;;;;;13.75;3.70;;;14.30;99.90;;;;;;5111880;28;20102;-69
2023/05/13 00:42:14;;;;;;;16.48;3.65;;;14.40;99.90;;;;;;5111931;28;20027;-69
2023/05/13 00:44:40;;;;;;;14.32;3.95;;;14.40;99.90;;;;;;5112002;28;20024;-69
2023/05/13 00:47:06;;;;;;;10.35;3.55;;;14.40;99.90;;;;;;5111702;28;20054;-70
2023/05/13 00:49:35;;;;;;;15.27;3.90;;;14.40;99.90;;;;;;5111736;28;20038;-70
2023/05/13 00:52:01;;;;;;;14.65;3.92;;;14.30;99.90;;;;;;5111350;28;20080;-69
2023/05/13 00:54:28;;;;;;;15.77;4.05;;;14.30;99.90;;;;;;5111737;28;20527;-69
2023/05/13 00:56:55;;;;;;;13.32;3.83;;;14.40;99.90;;;;;;5112037;28;20028;-70
2023/05/13 00:59:26;;;;;;;13.18;3.80;;;14.40;99.90;;;;;;5111576;28;20023;-70
2023/05/13 01:02:11;;;;;;;13.88;4.20;;;14.40;99.90;;;;;;5111682;28;20130;-69
2023/05/13 01:04:57;;;;;;;10.68;3.83;;;14.40;99.90;;;;;;5111498;28;20024;-70
2023/05/13 01:07:41;;;;;;;17.30;4.03;;;14.50;99.90;;;;;;5111133;28;20036;-70
2023/05/13 01:10:10;;;;;;;13.60;4.25;;;14.40;99.90;;;;;;5111597;28;20023;-69
2023/05/13 01:12:39;;;;;;;13.38;3.53;;;14.40;99.90;;;;;;5111457;28;20565;-69
2023/05/13 01:15:11;;;;;;;13.52;3.60;;;14.50;99.90;;;;;;5111425;28;20384;-69
2023/05/13 01:17:41;;;;;;;11.13;3.38;;;14.50;99.90;;;;;;5111496;28;20027;-70
2023/05/13 01:20:07;;;;;;;13.27;3.70;;;14.50;99.90;;;;;;5111583;28;20099;-70
2023/05/13 01:22:33;;;;;;;13.70;3.47;;;14.50;99.90;;;;;;5111380;28;20058;-69
2023/05/13 01:24:59;;;;;;;15.30;3.72;;;14.50;99.90;;;;;;5111494;28;20054;-69
2023/05/13 01:27:25;;;;;;;17.70;4.32;;;14.50;99.90;;;;;;5093317;28;20492;-70
2023/05/13 01:29:52;;;;;;;11.02;3.25;;;14.50;99.90;;;;;;5111481;28;20102;-70
2023/05/13 01:32:18;;;;;;;11.18;3.55;;;14.50;99.90;;;;;;5111346;28;20110;-69
2023/05/13 01:34:45;;;;;;;12.32;3.30;;;14.50;99.90;;;;;;5111271;28;20027;-69
2023/05/13 01:37:11;;;;;;;12.13;3.72;;;14.40;99.90;;;;;;5110985;28;20057;-69
2023/05/13 01:39:37;;;;;;;13.68;3.92;;;14.50;99.90;;;;;;5111287;28;20024;-69
2023/05/13 01:42:03;;;;;;;13.30;3.78;;;14.50;99.90;;;;;;5111706;28;20032;-69
2023/05/13 01:44:29;;;;;;;13.30;3.63;;;14.50;99.90;;;;;;5111180;28;20369;-69
2023/05/13 01:46:54;;;;;;;14.73;4.43;;;14.40;99.90;;;;;;5111118;28;20381;-69
2023/05/13 01:49:20;;;;;;;10.93;3.58;;;14.40;99.90;;;;;;5111224;28;20388;-69
2023/05/13 01:51:46;;;;;;;15.65;4.45;;;14.40;99.90;;;;;;5110840;28;20039;-69
2023/05/13 01:54:11;;;;;;;11.85;3.60;;;14.40;99.90;;;;;;5111092;28;20102;-69
2023/05/13 01:56:37;;;;;;;9.93;3.55;;;14.40;99.90;;;;;;5111499;28;20070;-70
2023/05/13 01:59:03;;;;;;;10.55;3.38;;;14.40;99.90;;;;;;5111074;28;20035;-69
2023/05/13 02:01:29;;;;;;;11.98;3.60;;;14.40;99.90;;;;;;5111145;28;20396;-69
2023/05/13 02:03:58;;;;;;;15.65;4.00;;;14.40;99.90;;;;;;5113147;28;20148;-69
2023/05/13 02:06:24;;;;;;;11.18;3.65;;;14.40;99.90;;;;;;5114252;28;20030;-69
2023/05/13 02:08:50;;;;;;;10.27;3.50;;;14.30;99.90;;;;;;5115030;28;20050;-69
2023/05/13 02:11:16;;;;;;;9.18;3.55;;;14.30;99.90;;;;;;5114603;28;20015;-69
2023/05/13 02:13:41;;;;;;;12.50;3.92;;;14.30;99.90;;;;;;5114391;28;20482;-69
2023/05/13 02:16:07;;;;;;;15.27;4.32;;;14.30;99.90;;;;;;5114696;28;20489;-69
2023/05/13 02:18:32;;;;;;;9.15;3.88;;;14.20;99.90;;;;;;5114476;28;20492;-69
2023/05/13 02:20:58;;;;;;;10.35;3.55;;;14.20;99.90;;;;;;5114536;28;20078;-69
2023/05/13 02:23:24;;;;;;;10.93;3.85;;;14.20;99.90;;;;;;5114364;28;20034;-69
2023/05/13 02:25:50;;;;;;;11.90;4.20;;;14.20;99.90;;;;;;5114437;28;20103;-70
2023/05/13 02:28:15;;;;;;;13.60;4.28;;;14.20;99.90;;;;;;5114423;28;20027;-70
2023/05/13 02:30:41;;;;;;;11.02;3.97;;;14.10;99.90;;;;;;5114396;28;20366;-69
2023/05/13 02:33:07;;;;;;;12.52;4.30;;;14.10;99.90;;;;;;5114135;28;20471;-69
2023/05/13 02:35:33;;;;;;;12.50;3.80;;;14.10;99.90;;;;;;5113670;28;20051;-69
2023/05/13 02:37:58;;;;;;;8.23;3.75;;;14.00;99.90;;;;;;5114350;28;20051;-69
2023/05/13 02:40:24;;;;;;;11.63;4.05;;;14.00;99.90;;;;;;5114231;28;20442;-69
2023/05/13 02:42:50;;;;;;;12.43;4.05;;;14.00;99.90;;;;;;5114079;28;20031;-69
2023/05/13 02:45:15;;;;;;;13.60;4.63;;;14.00;99.90;;;;;;5114012;28;20020;-69
2023/05/13 02:47:42;;;;;;;13.98;3.78;;;14.00;99.90;;;;;;5113846;28;20031;-68
2023/05/13 02:50:09;;;;;;;13.95;4.30;;;14.00;99.90;;;;;;5113517;28;20016;-69
2023/05/13 02:52:35;;;;;;;14.75;3.85;;;14.00;99.90;;;;;;5113759;28;20027;-69
2023/05/13 02:55:01;;;;;;;20.15;4.32;;;14.10;99.90;;;;;;5113683;28;20020;-69
2023/05/13 02:57:27;;;;;;;15.30;4.22;;;14.10;99.90;;;;;;5113855;28;20024;-69
2023/05/13 02:59:53;;;;;;;14.20;4.47;;;14.10;99.90;;;;;;5113936;28;20050;-69
2023/05/13 03:02:18;;;;;;;15.40;4.53;;;14.10;99.90;;;;;;5113431;28;20111;-70
2023/05/13 03:04:44;;;;;;;13.07;3.88;;;14.10;99.90;;;;;;5113352;28;20047;-69
2023/05/13 03:07:10;;;;;;;13.80;4.13;;;14.10;99.90;;;;;;5113429;28;20093;-68
2023/05/13 03:09:38;;;;;;;11.95;3.53;;;14.00;99.90;;;;;;5113750;28;20030;-70
2023/05/13 03:12:05;;;;;;;11.63;3.92;;;14.00;99.90;;;;;;5113428;28;20085;-69
2023/05/13 03:14:33;;;;;;;12.55;3.80;;;13.90;99.90;;;;;;5112023;28;20084;-70
2023/05/13 03:16:59;;;;;;;10.13;3.80;;;13.90;99.90;;;;;;5113077;28;20055;-70
2023/05/13 03:19:25;;;;;;;14.35;3.72;;;13.90;99.90;;;;;;5113637;28;20016;-68
2023/05/13 03:21:51;;;;;;;14.68;4.13;;;13.90;99.90;;;;;;5113325;28;20028;-69
2023/05/13 03:24:16;;;;;;;10.40;4.07;;;13.80;99.90;;;;;;5113176;28;20036;-69
2023/05/13 03:26:42;;;;;;;17.70;4.53;;;13.70;99.90;;;;;;5113125;28;20092;-70
2023/05/13 03:29:08;;;;;;;10.10;3.90;;;13.70;99.90;;;;;;5113326;28;20084;-69
2023/05/13 03:31:33;;;;;;;11.30;3.80;;;13.70;99.90;;;;;;5112750;28;20016;-69
2023/05/13 03:33:59;;;;;;;13.15;4.47;;;13.60;99.90;;;;;;5113003;28;20035;-69
2023/05/13 03:36:25;;;;;;;13.35;4.47;;;13.60;99.90;;;;;;5094579;28;20024;-68
2023/05/13 03:38:50;;;;;;;12.30;4.35;;;13.60;99.90;;;;;;5094788;28;20032;-69
2023/05/13 03:41:16;;;;;;;11.68;4.32;;;13.60;99.90;;;;;;5113095;28;20090;-69
2023/05/13 03:43:43;;;;;;;13.43;4.40;;;13.50;99.90;;;;;;5112810;28;20028;-69
2023/05/13 03:46:09;;;;;;;10.55;4.10;;;13.50;99.90;;;;;;5112514;28;20019;-69
2023/05/13 03:48:34;;;;;;;9.88;4.32;;;13.50;99.90;;;;;;5112767;28;20439;-69
2023/05/13 03:51:00;;;;;;;9.48;4.00;;;13.50;99.90;;;;;;5112723;28;20023;-69
2023/05/13 03:53:26;;;;;;;10.57;4.07;;;13.40;99.90;;;;;;5112672;28;20032;-69
2023/05/13 03:55:52;;;;;;;10.43;4.32;;;13.40;99.90;;;;;;5112651;28;20035;-69
2023/05/13 03:58:18;;;;;;;8.95;4.15;;;13.40;99.90;;;;;;5112288;28;20051;-70
2023/05/13 04:00:46;;;;;;;11.10;4.35;;;13.30;99.90;;;;;;5112536;28;20035;-70
2023/05/13 04:03:14;;;;;;;9.82;3.97;;;13.30;99.90;;;;;;5112378;28;20476;-69
2023/05/13 04:05:40;;;;;;;8.77;3.85;;;13.20;99.90;;;;;;5112365;28;20054;-69
2023/05/13 04:08:06;;;;;;;10.10;4.10;;;13.20;99.90;;;;;;5112415;28;20063;-70
2023/05/13 04:10:32;;;;;;;11.43;4.40;;;13.20;99.90;;;;;;5112427;28;20492;-70
2023/05/13 04:12:57;;;;;;;9.18;4.15;;;13.30;99.90;;;;;;5112076;28;20104;-69
2023/05/13 04:15:23;;;;;;;12.77;4.70;;;13.20;99.90;;;;;;5111848;28;20068;-70
2023/05/13 04:17:50;;;;;;;13.50;4.55;;;13.20;99.90;;;;;;5112138;28;20032;-70
2023/05/13 04:20:16;;;;;;;6.75;4.30;;;13.20;99.90;;;;;;5112264;28;20488;-68
2023/05/13 04:22:41;;;;;;;10.02;4.60;;;13.10;99.90;;;;;;5112530;28;20098;-70
2023/05/13 04:25:07;;;;;;;7.03;4.18;;;13.20;99.90;;;;;;5112044;28;20028;-70
2023/05/13 04:27:33;;;;;;;10.05;4.50;;;13.10;99.90;;;;;;5111483;28;20047;-70
2023/05/13 04:29:59;;;;;;;7.82;3.90;;;13.10;99.90;;;;;;5111731;28;20080;-70
2023/05/13 04:32:24;;;;;;;8.15;4.10;;;13.10;99.90;;;;;;5112312;28;20081;-70
2023/05/13 04:34:51;;;;;;;5.68;3.97;;;13.00;99.90;;;;;;5111969;28;20019;-69
2023/05/13 04:37:17;;;;;;;8.55;4.00;;;13.00;99.90;;;;;;5111618;28;20034;-69
2023/05/13 04:39:45;;;;;;;8.10;4.60;;;13.00;99.90;;;;;;5111755;28;20023;-70
2023/05/13 04:42:11;;;;;;;8.85;4.25;;;13.00;99.90;;;;;;5111800;28;20450;-70
2023/05/13 04:44:37;;;;;;;6.78;4.20;;;12.90;99.90;;;;;;5111563;28;20023;-69
2023/05/13 04:47:03;;;;;;;8.95;4.00;;;12.90;99.90;;;;;;5111869;28;20043;-70
2023/05/13 04:49:28;;;;;;;8.27;4.47;;;12.90;99.90;;;;;;5111967;28;20085;-70
2023/05/13 04:51:54;;;;;;;6.68;4.57;;;12.90;99.90;;;;;;5111808;28;20031;-70
2023/05/13 04:54:20;;;;;;;6.65;4.20;;;12.90;99.90;;;;;;5111598;28;20023;-69
2023/05/13 04:56:45;;;;;;;8.77;4.50;;;12.90;99.90;;;;;;5112037;28;20034;-70
2023/05/13 04:59:11;;;;;;;8.98;4.88;;;12.90;99.90;;;;;;5111425;28;20053;-70
2023/05/13 05:01:37;;;;;;;7.85;4.95;;;12.80;99.90;;;;;;5111514;28;20028;-70
2023/05/13 05:04:03;;;;;;;8.60;4.75;;;12.80;99.90;;;;;;5111789;28;20023;-70
2023/05/13 05:06:30;;;;;;;7.78;4.90;;;12.80;99.90;;;;;;5111239;28;20031;-70
2023/05/13 05:08:55;;;;;;;7.78;5.10;;;12.80;99.90;;;;;;5111689;28;20063;-70
2023/05/13 05:11:21;;;;;;;9.40;5.30;;;12.80;99.90;;;;;;5111474;28;20459;-69
2023/05/13 05:13:47;;;;;;;7.45;4.80;;;12.70;99.90;;;;;;5111002;28;20055;-70
2023/05/13 05:16:12;;;;;;;7.90;5.10;;;12.70;99.90;;;;;;5111511;28;20478;-69
2023/05/13 05:18:40;;;;;;;7.28;5.10;;;12.70;99.90;;;;;;5111772;28;20442;-70
2023/05/13 05:21:06;;;;;;;9.07;4.88;;;12.70;99.90;;;;;;5111612;28;20031;-70
2023/05/13 05:23:31;;;;;;;6.93;4.88;;;12.70;99.90;;;;;;5111346;28;20095;-70
2023/05/13 05:25:59;;;;;;;8.40;5.38;;;12.70;99.90;;;;;;5111268;28;20107;-70
2023/05/13 05:28:24;;;;;;;8.18;5.15;;;12.70;99.90;;;;;;5110917;28;20036;-70
2023/05/13 05:30:50;;;;;;;7.60;5.40;;;12.60;99.90;;;;;;5111405;28;20076;-71
2023/05/13 05:33:17;;;;;;;6.45;5.28;;;12.60;99.90;;;;;;5111154;28;20019;-70
2023/05/13 05:35:43;;;;;;;7.68;5.03;;;12.60;99.90;;;;;;5111331;28;20411;-69
2023/05/13 05:38:10;;;;;;;8.32;4.95;;;12.60;99.90;;;;;;5112341;28;20040;-69
2023/05/13 05:40:39;;;;;;;10.57;5.40;;;12.60;99.90;;;;;;5115544;28;20020;-70
2023/05/13 05:43:06;;;;;;;8.30;4.85;;;12.60;99.90;;;;;;5114772;28;20019;-70
2023/05/13 05:45:33;;;;;;;6.78;5.25;;;12.60;99.90;;;;;;5115296;28;20454;-70
2023/05/13 05:47:59;;;;;;;6.90;4.90;;;12.60;99.90;;;;;;5115085;28;20035;-69
2023/05/13 05:50:25;;;;;;;8.07;5.10;;;12.50;99.90;;;;;;5115034;28;20403;-69
2023/05/13 05:52:50;;;;;;;9.32;4.63;;;12.50;99.90;;;;;;5115449;28;20059;-71
2023/05/13 05:55:16;;;;;;;6.00;4.88;;;12.50;99.90;;;;;;5114857;28;20020;-69
2023/05/13 05:57:42;;;;;;;7.35;5.18;;;12.50;99.90;;;;;;5114575;28;20023;-69
2023/05/13 06:00:08;;;;;;;9.57;5.50;;;12.50;99.90;;;;;;5115095;28;20041;-69
2023/05/13 06:02:33;;;;;;;6.07;4.93;;;12.50;99.90;;;;;;5114742;28;20051;-69
2023/05/13 06:04:59;;;;;;;6.43;4.90;;;12.60;99.90;;;;;;5114646;28;20052;-70
2023/05/13 06:07:25;;;;;;;8.27;5.40;;;12.60;99.90;;;;;;5114717;28;20046;-69
2023/05/13 06:09:50;;;;;;;8.10;4.97;;;12.60;99.90;;;;;;5114900;28;20032;-70
2023/05/13 06:12:16;;;;;;;8.32;5.32;;;12.60;99.90;;;;;;5113947;28;20044;-71
2023/05/13 06:14:42;;;;;;;7.43;5.38;;;12.50;99.90;;;;;;5114654;28;20024;-69
2023/05/13 06:17:07;;;;;;;7.93;5.53;;;12.60;99.90;;;;;;5114871;28;20046;-70
2023/05/13 06:19:33;;;;;;;10.43;5.85;;;12.60;99.90;;;;;;5114176;28;20035;-70
2023/05/13 06:21:58;;;;;;;9.43;6.53;;;12.60;99.90;;;;;;5113297;28;20054;-70
2023/05/13 06:24:24;;;;;;;7.80;6.20;;;12.60;99.90;;;;;;5113600;28;20031;-70
2023/05/13 06:26:50;;;;;;;10.82;6.18;;;12.70;99.90;;;;;;5114359;28;20031;-71
2023/05/13 06:29:15;;;;;;;6.63;5.93;;;12.60;99.90;;;;;;5114383;28;20031;-70
2023/05/13 06:31:41;;;;;;;9.00;6.13;;;12.70;99.90;;;;;;5114579;28;20034;-70
2023/05/13 06:34:07;;;;;;;7.95;6.30;;;12.70;99.90;;;;;;5114346;28;20019;-69
2023/05/13 06:36:32;;;;;;;8.50;5.55;;;12.80;99.90;;;;;;5114304;28;20057;-70
2023/05/13 06:38:59;;;;;;;8.15;5.47;;;12.80;99.90;;;;;;5114062;28;20023;-70
2023/05/13 06:41:25;;;;;;;7.57;5.65;;;12.80;99.90;;;;;;5114073;28;20023;-70
2023/05/13 06:43:50;;;;;;;6.53;5.20;;;12.80;99.90;;;;;;5114012;28;20093;-70
2023/05/13 06:46:16;;;;;;;7.65;5.47;;;12.90;99.90;;;;;;5113949;28;20036;-69
2023/05/13 06:48:42;;;;;;;7.10;5.55;;;12.90;99.90;;;;;;5095452;28;20036;-70
2023/05/13 06:51:07;;;;;;;5.97;5.43;;;12.90;99.90;;;;;;5113793;28;20039;-70
2023/05/13 06:53:33;;;;;;;7.22;5.47;;;12.90;99.90;;;;;;5113716;28;20039;-70
2023/05/13 06:55:58;;;;;;;8.02;5.35;;;13.00;99.90;;;;;;5113497;28;20026;-70
2023/05/13 06:58:24;;;;;;;7.30;5.40;;;13.00;99.90;;;;;;5114183;28;20034;-70
2023/05/13 07:00:50;;;;;;;6.72;5.30;;;13.00;99.90;;;;;;5113919;28;20031;-69
2023/05/13 07:03:16;;;;;;;10.80;5.30;;;13.00;99.90;;;;;;5095261;28;20024;-69
2023/05/13 07:05:42;;;;;;;6.43;5.38;;;13.10;99.90;;;;;;5113641;28;20035;-69
2023/05/13 07:08:08;;;;;;;7.65;5.32;;;13.10;99.90;;;;;;5113345;28;20039;-70
2023/05/13 07:10:34;;;;;;;7.13;5.13;;;13.20;99.90;;;;;;5113115;28;20028;-70
2023/05/13 07:13:01;;;;;;;7.25;5.40;;;13.20;99.90;;;;;;5113382;28;20397;-70
2023/05/13 07:15:27;;;;;;;8.20;5.25;;;13.20;99.90;;;;;;5113451;28;20518;-70
2023/05/13 07:17:53;;;;;;;8.70;5.22;;;13.30;99.90;;;;;;5113348;28;20036;-70
2023/05/13 07:20:21;;;;;;;7.10;5.20;;;13.30;99.90;;;;;;5113351;28;20396;-70
2023/05/13 07:22:49;;;;;;;7.03;4.70;;;13.40;99.90;;;;;;5113190;28;20047;-70
2023/05/13 07:25:16;;;;;;;7.60;4.10;;;13.30;99.90;;;;;;5113022;28;20020;-70
2023/05/13 07:27:42;;;;;;;5.53;4.47;;;13.30;99.90;;;;;;5113015;28;20435;-70
2023/05/13 07:30:09;;;;;;;8.40;4.32;;;13.30;99.90;;;;;;5113513;28;20027;-70
2023/05/13 07:32:35;;;;;;;5.38;4.28;;;13.30;99.90;;;;;;5113089;28;20047;-70
2023/05/13 07:35:03;;;;;;;5.35;3.80;;;13.40;99.90;;;;;;5113021;28;20059;-70
2023/05/13 07:37:28;;;;;;;5.75;3.90;;;13.40;99.90;;;;;;5112959;28;20483;-71
2023/05/13 07:39:54;;;;;;;5.35;3.83;;;13.50;99.90;;;;;;5112633;28;20051;-69
2023/05/13 07:42:20;;;;;;;4.22;3.60;;;13.50;99.90;;;;;;5112889;28;20034;-68
2023/05/13 07:44:45;;;;;;;7.25;4.35;;;13.50;99.90;;;;;;5112942;28;20051;-70
2023/05/13 07:47:11;;;;;;;5.03;3.92;;;13.60;99.90;;;;;;5112688;28;20089;-70
2023/05/13 07:49:37;;;;;;;4.80;4.05;;;13.60;99.90;;;;;;5113107;28;20438;-70
2023/05/13 07:52:03;;;;;;;6.53;4.15;;;13.60;99.90;;;;;;5112635;28;20515;-69
2023/05/13 07:54:28;;;;;;;8.07;3.70;;;13.60;99.90;;;;;;5112253;28;20041;-69
2023/05/13 07:56:54;;;;;;;7.57;3.92;;;13.70;99.90;;;;;;5112658;28;20031;-69
2023/05/13 07:59:20;;;;;;;7.47;4.18;;;13.70;99.90;;;;;;5112523;28;20023;-69
2023/05/13 08:01:45;;;;;;;5.20;3.40;;;13.70;99.90;;;;;;5111989;28;20404;-69
2023/05/13 08:04:11;;;;;;;6.13;4.05;;;13.80;99.90;;;;;;5112567;28;20039;-69
2023/05/13 08:06:37;;;;;;;5.90;4.03;;;13.90;99.90;;;;;;5112565;28;20023;-69
2023/05/13 08:09:03;;;;;;;6.72;3.80;;;13.90;99.90;;;;;;5112027;28;20039;-69
2023/05/13 08:11:28;;;;;;;5.28;4.10;;;13.90;99.90;;;;;;5112568;28;20038;-69
2023/05/13 08:13:54;;;;;;;5.93;4.20;;;14.00;99.90;;;;;;5112214;28;20055;-69
2023/05/13 08:16:20;;;;;;;5.97;3.60;;;14.00;99.90;;;;;;5112154;28;20020;-69
2023/05/13 08:18:45;;;;;;;4.70;3.30;;;14.10;99.90;;;;;;5112430;28;20023;-69
2023/05/13 08:21:11;;;;;;;4.38;3.45;;;14.00;99.90;;;;;;5112067;28;20028;-69
2023/05/13 08:23:37;;;;;;;5.45;3.53;;;14.20;99.90;;;;;;5111723;28;20095;-69
2023/05/13 08:26:03;;;;;;;5.50;3.35;;;14.20;99.90;;;;;;5112151;28;20323;-69
2023/05/13 08:28:29;;;;;;;8.07;4.03;;;14.20;99.90;;;;;;5112241;28;20408;-69
2023/05/13 08:31:01;;;;;;;6.63;3.40;;;14.20;99.90;;;;;;5111803;28;20027;-69
2023/05/13 08:33:28;;;;;;;6.88;3.35;;;14.20;99.90;;;;;;5111974;28;20071;-69
2023/05/13 08:35:53;;;;;;;4.55;3.47;;;14.30;99.90;;;;;;5111744;28;20034;-70
2023/05/13 08:38:19;;;;;;;5.50;3.63;;;14.30;99.90;;;;;;5111968;28;20098;-69
2023/05/13 08:40:45;;;;;;;5.50;3.45;;;14.30;99.90;;;;;;5112520;28;20058;-69
2023/05/13 08:43:15;;;;;;;5.80;3.35;;;14.30;99.90;;;;;;5111803;28;20035;-69
2023/05/13 08:45:44;;;;;;;5.05;3.17;;;14.40;99.90;;;;;;5111821;28;20019;-69
2023/05/13 08:48:11;;;;;;;3.75;3.00;;;14.40;99.90;;;;;;5111728;28;20049;-69
2023/05/13 08:50:37;;;;;;;5.13;2.90;;;14.40;99.90;;;;;;5111747;28;20031;-69
2023/05/13 08:53:05;;;;;;;5.22;3.30;;;14.40;99.90;;;;;;5111795;28;20087;-69
2023/05/13 08:55:31;;;;;;;5.80;3.47;;;14.50;99.90;;;;;;5111622;28;20035;-69
2023/05/13 08:57:57;;;;;;;5.10;3.00;;;14.60;99.90;;;;;;5111674;28;20023;-69
2023/05/13 09:00:22;;;;;;;5.65;2.90;;;14.60;99.90;;;;;;5112030;28;20020;-69
2023/05/13 09:02:49;;;;;;;3.63;2.70;;;14.60;99.90;;;;;;5093488;28;20072;-69
2023/05/13 09:05:17;;;;;;;3.83;2.95;;;14.60;99.90;;;;;;5111163;28;20027;-68
2023/05/13 09:07:43;;;;;;;3.15;2.58;;;14.60;99.90;;;;;;5111494;28;20526;-68
2023/05/13 09:10:09;;;;;;;3.97;2.60;;;14.70;99.90;;;;;;5111744;28;20036;-69
2023/05/13 09:12:45;;;;;;;3.65;2.60;;;14.80;99.90;;;;;;5111341;28;20154;-69
2023/05/13 09:15:16;;;;;;;5.05;2.65;;;14.90;99.90;;;;;;5116252;28;20023;-69
2023/05/13 09:17:48;;;;;;;3.33;2.33;;;15.00;99.90;;;;;;5097372;28;20464;-69
2023/05/13 09:20:16;;;;;;;3.88;2.17;;;15.00;99.90;;;;;;5115369;28;20429;-69
2023/05/13 09:22:49;;;;;;;5.47;2.40;;;15.00;99.90;;;;;;5115581;28;20057;-68
2023/05/13 09:25:17;;;;;;;4.30;3.17;;;15.10;99.90;;;;;;5115538;28;20392;-69
2023/05/13 09:27:47;;;;;;;6.10;3.30;;;15.10;99.90;;;;;;5116092;28;20189;-69
2023/05/13 09:30:13;;;;;;;4.88;3.53;;;15.20;99.90;;;;;;5115421;28;20027;-69
2023/05/13 09:32:41;;;;;;;3.88;2.28;;;15.20;99.90;;;;;;5115312;28;20499;-69
2023/05/13 09:35:16;;;;;;;3.72;2.13;;;15.20;99.90;;;;;;5115528;28;20020;-69
2023/05/13 09:37:46;;;;;;;4.93;2.65;;;15.20;99.90;;;;;;5115482;28;20023;-69
2023/05/13 09:40:15;;;;;;;5.75;3.40;;;15.30;99.90;;;;;;5115259;28;20020;-68
2023/05/13 09:42:45;;;;;;;5.10;2.25;;;15.30;99.90;;;;;;5115199;28;20108;-69
2023/05/13 09:45:16;;;;;;;4.25;2.47;;;15.40;99.90;;;;;;5115179;28;20027;-68
2023/05/13 09:47:42;;;;;;;5.95;3.03;;;15.50;99.90;;;;;;5114973;28;20118;-69
2023/05/13 09:50:10;;;;;;;5.82;2.10;;;15.50;99.90;;;;;;5115089;28;20100;-69
2023/05/13 09:52:37;;;;;;;5.68;2.40;;;15.50;99.90;;;;;;5115210;28;20058;-69
2023/05/13 09:55:07;;;;;;;4.68;2.90;;;15.60;99.90;;;;;;5115213;28;20035;-69
2023/05/13 09:57:33;;;;;;;4.45;2.55;;;15.60;99.90;;;;;;5115448;28;20020;-69
2023/05/13 10:00:00;;;;;;;4.88;2.20;;;15.70;99.90;;;;;;5115004;28;20026;-69
2023/05/13 10:02:27;;;;;;;4.57;2.97;;;15.70;99.90;;;;;;5114710;28;20030;-68
2023/05/13 10:04:57;;;;;;;5.03;2.35;;;15.70;99.90;;;;;;5114810;28;20511;-69
2023/05/13 10:07:24;;;;;;;5.55;2.38;;;15.80;99.90;;;;;;5114655;28;20032;-69
2023/05/13 10:09:57;;;;;;;4.90;2.28;;;15.80;99.90;;;;;;5114734;28;20111;-70
2023/05/13 10:12:26;;;;;;;4.90;2.43;;;15.80;99.90;;;;;;5114618;28;20043;-69
2023/05/13 10:14:53;;;;;;;6.18;2.70;;;15.90;99.90;;;;;;5114607;28;20503;-69
2023/05/13 10:17:23;;;;;;;7.13;2.40;;;16.00;99.90;;;;;;5114594;28;20090;-69
2023/05/13 10:19:51;;;;;;;5.00;2.15;;;16.10;99.90;;;;;;5114592;28;20029;-69
2023/05/13 10:22:37;;;;;;;3.95;2.10;;;16.10;99.90;;;;;;5114486;28;20480;-69
2023/05/13 10:25:04;;;;;;;4.78;2.10;;;16.00;99.90;;;;;;5113877;28;20130;-69
2023/05/13 10:27:31;;;;;;;5.22;2.03;;;16.10;99.90;;;;;;5114329;28;20032;-69
2023/05/13 10:29:59;;;;;;;6.78;2.03;;;16.30;99.90;;;;;;5114720;28;20473;-69
2023/05/13 10:32:27;;;;;;;4.40;2.05;;;16.30;99.90;;;;;;5113977;28;20024;-69
2023/05/13 10:34:56;;;;;;;4.25;2.20;;;16.30;99.90;;;;;;5114271;28;20028;-69
2023/05/13 10:37:28;;;;;;;5.25;2.60;;;16.40;99.90;;;;;;5114294;28;20377;-70
2023/05/13 10:40:09;;;;;;;4.60;1.90;;;16.40;99.90;;;;;;5114211;28;20059;-69
2023/05/13 10:42:41;;;;;;;5.53;2.63;;;16.40;99.90;;;;;;5114361;28;20106;-69
2023/05/13 10:45:08;;;;;;;4.68;2.42;;;16.50;99.90;;;;;;5114002;28;20037;-69
2023/05/13 10:47:35;;;;;;;4.70;2.35;;;16.50;99.90;;;;;;5113740;28;20039;-69
2023/05/13 10:50:37;;;;;;;3.95;1.80;;;16.60;99.90;;;;;;5114035;28;20042;-69
2023/05/13 10:53:09;;;;;;;3.88;1.60;;;16.60;99.90;;;;;;5050755;28;20044;-69
2023/05/13 10:55:43;;;;;;;5.55;1.60;;;16.80;99.90;;;;;;5050861;28;20087;-70
2023/05/13 10:58:13;;;;;;;4.28;1.60;;;16.70;99.90;;;;;;5051173;28;20506;-70
2023/05/13 11:00:44;;;;;;;4.38;2.10;;;16.80;99.90;;;;;;5050745;28;20112;-72
2023/05/13 11:03:09;;;;;;;4.55;1.70;;;16.90;99.90;;;;;;5050440;28;20584;-70
2023/05/13 11:05:39;;;;;;;4.25;1.90;;;16.90;99.90;;;;;;5050714;28;20116;-71
2023/05/13 11:08:05;;;;;;;6.55;2.20;;;16.80;99.90;;;;;;5050583;28;20029;-69
2023/05/13 11:10:31;;;;;;;4.38;2.20;;;16.90;99.90;;;;;;5050962;28;20486;-70
2023/05/13 11:13:23;;;;;;;3.42;1.67;;;16.80;99.90;;;;;;5050316;28;20045;-70
2023/05/13 11:15:53;;;;;;;4.25;1.58;;;16.80;99.90;;;;;;5049921;28;20036;-69
2023/05/13 11:18:27;;;;;;;4.35;1.50;;;16.80;99.90;;;;;;5049473;28;20033;-70
2023/05/13 11:20:53;;;;;;;4.80;1.80;;;16.90;99.90;;;;;;5050327;28;20488;-70
2023/05/13 11:23:20;;;;;;;3.08;1.52;;;16.80;99.90;;;;;;5049650;28;20041;-69
2023/05/13 11:25:46;;;;;;;3.80;1.60;;;16.80;99.90;;;;;;5050457;28;20053;-70
2023/05/13 11:28:17;;;;;;;3.53;1.40;;;17.00;99.90;;;;;;5063734;28;20047;-70
2023/05/13 11:30:53;;;;;;;2.53;1.60;;;17.00;99.90;;;;;;5091678;28;20357;-70
2023/05/13 11:33:20;;;;;;;3.00;1.60;;;17.10;99.90;;;;;;5092197;28;20085;-70
2023/05/13 11:35:54;;;;;;;3.15;1.80;;;17.10;99.90;;;;;;5092024;28;20029;-70
2023/05/13 11:38:23;;;;;;;3.55;1.73;;;17.10;99.90;;;;;;5092423;28;20020;-70
2023/05/13 11:40:50;;;;;;;4.30;1.80;;;17.10;99.90;;;;;;5092611;28;20043;-71
2023/05/13 11:43:21;;;;;;;3.05;1.58;;;17.20;99.90;;;;;;5074405;28;20043;-70
2023/05/13 11:45:47;;;;;;;5.35;1.60;;;17.20;99.90;;;;;;5092408;28;20059;-70
2023/05/13 11:48:21;;;;;;;3.50;1.80;;;17.20;99.90;;;;;;5092353;28;20044;-70
2023/05/13 11:50:48;;;;;;;;;;;17.40;99.90;;;;;;5093278;28;20069;-70
2023/05/13 11:53:19;;;;;;;2.65;1.70;;;17.30;99.90;;;;;;5091932;28;19958;-71
2023/05/13 11:55:45;;;;;;;3.58;1.50;;;17.30;99.90;;;;;;5092606;28;20020;-70
2023/05/13 11:58:14;;;;;;;2.85;1.65;;;17.40;99.90;;;;;;5092213;28;20082;-70
2023/05/13 12:00:39;;;;;;;2.65;1.50;;;17.40;99.90;;;;;;5091868;28;20500;-70
2023/05/13 12:03:10;;;;;;;4.57;1.70;;;17.50;99.90;;;;;;5092177;28;20027;-71
2023/05/13 12:05:36;;;;;;;2.67;1.35;;;17.60;99.90;;;;;;5092059;28;20072;-71
2023/05/13 12:08:02;;;;;;;2.28;1.40;;;17.70;99.90;;;;;;5092072;28;20050;-70
2023/05/13 12:10:28;;;;;;;2.75;1.60;;;17.70;99.90;;;;;;5110256;28;20089;-71
2023/05/13 12:12:54;;;;;;;2.78;1.65;;;17.60;99.90;;;;;;5112078;28;20087;-70
2023/05/13 12:15:21;;;;;;;1.75;1.50;;;17.60;99.90;;;;;;5112514;28;20019;-71
2023/05/13 12:17:48;;;;;;;3.45;1.70;;;17.60;99.90;;;;;;5112309;28;20036;-70
2023/05/13 12:20:14;;;;;;;3.92;1.55;;;17.70;99.90;;;;;;5112324;28;20035;-70
2023/05/13 12:22:43;;;;;;;3.72;1.40;;;17.80;99.90;;;;;;5112104;28;20059;-70
2023/05/13 12:25:39;;;;;;;2.13;1.60;;;17.90;99.90;;;;;;5094289;28;20488;-70
2023/05/13 12:28:18;;;;;;;2.05;1.20;;;17.90;99.90;;;;;;5112244;28;20031;-70
2023/05/13 12:30:59;;;;;;;3.30;1.48;;;17.90;99.90;;;;;;5112655;28;20084;-70
2023/05/13 12:33:30;;;;;;;2.63;1.75;;;18.00;99.90;;;;;;5112244;28;20069;-70
2023/05/13 12:36:24;;;;;;;3.13;1.52;;;18.00;99.90;;;;;;5112069;28;20095;-71
2023/05/13 12:39:03;;;;;;;2.83;1.33;;;18.10;99.90;;;;;;5112022;28;20034;-71
2023/05/13 12:41:30;;;;;;;3.30;1.40;;;18.10;99.90;;;;;;5111863;28;20106;-70
2023/05/13 12:44:24;;;;;;;2.28;1.30;;;18.20;99.90;;;;;;5111496;28;20385;-70